createdAt,value
2022-12-15T00:12:45.978Z,3.56
2022-12-15T00:32:46.002Z,3.31
2022-12-15T00:52:46.052Z,3.25
2022-12-15T01:12:46.034Z,3.25
2022-12-15T01:32:46.069Z,3.37
2022-12-15T01:52:45.973Z,3.62
2022-12-15T02:12:46.066Z,3.62
2022-12-15T02:32:46.007Z,3.62
2022-12-15T02:52:46.029Z,3.68
2022-12-15T03:12:46.065Z,3.62
2022-12-15T03:32:46.068Z,3.68
2022-12-15T03:52:46.083Z,3.68
2022-12-15T04:32:46.083Z,3.81
2022-12-15T04:52:46.105Z,3.62
2022-12-15T05:12:46.136Z,3.81
2022-12-15T05:32:46.177Z,3.81
2022-12-15T05:52:46.161Z,3.87
2022-12-15T06:12:46.184Z,3.81
2022-12-15T06:32:46.208Z,3.87
2022-12-15T06:52:46.221Z,3.87
2022-12-15T07:12:46.242Z,3.87
2022-12-15T07:32:46.303Z,3.87
2022-12-15T07:52:46.215Z,3.75
2022-12-15T08:12:46.249Z,3.75
2022-12-15T08:32:46.266Z,3.87
2022-12-15T08:52:46.234Z,3.87
2022-12-15T09:12:46.248Z,3.93
2022-12-15T09:32:46.270Z,3.93
2022-12-15T09:52:46.292Z,3.93
2022-12-15T10:12:46.446Z,3.93
2022-12-15T10:32:46.518Z,3.93
2022-12-15T10:52:46.524Z,3.93
2022-12-15T11:12:46.539Z,4.06
2022-12-15T11:32:46.451Z,4.06
2022-12-15T11:52:46.480Z,4.12
2022-12-15T12:12:46.491Z,4.25
2022-12-15T12:32:46.519Z,4.12
2022-12-15T12:52:46.366Z,4.12
2022-12-15T13:12:46.547Z,4.12
2022-12-15T13:32:46.588Z,4.18
2022-12-15T13:52:46.591Z,4.18
2022-12-15T14:12:46.632Z,4.18
2022-12-15T14:32:46.511Z,4.25
2022-12-15T14:52:46.660Z,4.25
2022-12-15T15:12:46.499Z,4.25
2022-12-15T15:32:46.414Z,4.31
2022-12-15T15:52:46.556Z,4.25
2022-12-15T16:12:46.453Z,4.31
2022-12-15T16:32:46.454Z,4.31
2022-12-15T16:52:46.502Z,4.31
2022-12-15T17:12:46.495Z,4.31
2022-12-15T17:32:46.523Z,4.31
2022-12-15T17:52:46.609Z,4.50
2022-12-15T18:12:46.548Z,4.50
2022-12-15T18:32:46.715Z,4.37
2022-12-15T18:52:46.665Z,4.56
2022-12-15T19:12:46.634Z,4.43
2022-12-15T19:32:46.514Z,4.25
2022-12-15T19:52:46.532Z,4.50
2022-12-15T20:12:46.691Z,4.37
2022-12-15T20:32:46.624Z,4.43
2022-12-15T20:52:46.593Z,4.43
2022-12-15T21:12:46.677Z,4.43
2022-12-15T21:32:46.682Z,4.31
2022-12-15T21:52:46.884Z,4.50
2022-12-15T22:12:46.661Z,4.43
2022-12-15T22:32:46.805Z,4.31
2022-12-15T22:52:46.832Z,4.18
2022-12-15T23:12:46.794Z,4.43
2022-12-15T23:32:46.809Z,4.43
2022-12-15T23:52:46.669Z,4.25
